createdAt,value
2023-03-02T00:01:34.888Z,20.37
2023-03-02T00:04:05.908Z,20.00
2023-03-02T00:06:44.429Z,22.97
2023-03-02T00:09:18.600Z,22.17
2023-03-02T00:11:53.947Z,20.93
2023-03-02T00:14:23.629Z,16.17
2023-03-02T00:16:54.481Z,18.70
2023-03-02T00:19:25.796Z,24.77
2023-03-02T00:22:10.088Z,21.10
2023-03-02T00:24:40.616Z,19.27
2023-03-02T00:27:09.256Z,25.03
2023-03-02T00:29:39.349Z,20.70
2023-03-02T00:32:11.438Z,19.70
2023-03-02T00:34:45.002Z,20.13
2023-03-02T00:37:12.794Z,18.23
2023-03-02T00:39:51.570Z,19.07
2023-03-02T00:42:25.129Z,17.77
2023-03-02T00:44:59.149Z,18.63
2023-03-02T00:47:26.817Z,17.07
2023-03-02T00:49:54.861Z,21.10
2023-03-02T00:52:27.881Z,16.10
2023-03-02T00:54:57.911Z,20.13
2023-03-02T00:57:29.381Z,19.43
2023-03-02T00:59:59.804Z,16.40
2023-03-02T01:02:33.821Z,18.63
2023-03-02T01:05:03.034Z,22.20
2023-03-02T01:07:31.359Z,17.83
2023-03-02T01:10:10.067Z,18.80
2023-03-02T01:12:39.376Z,22.03
2023-03-02T01:15:14.967Z,20.10
2023-03-02T01:17:46.782Z,19.77
2023-03-02T01:20:16.876Z,23.97
2023-03-02T01:22:45.903Z,26.40
2023-03-02T01:25:19.474Z,29.63
2023-03-02T01:27:54.984Z,17.47
2023-03-02T01:30:23.865Z,18.70
2023-03-02T01:32:52.534Z,17.23
2023-03-02T01:35:21.408Z,16.30
2023-03-02T01:37:48.758Z,17.37
2023-03-02T01:40:25.401Z,12.00
2023-03-02T01:42:54.107Z,14.23
2023-03-02T01:45:53.354Z,14.43
2023-03-02T01:48:39.343Z,21.00
2023-03-02T01:51:16.090Z,20.17
2023-03-02T01:53:51.109Z,17.20
2023-03-02T01:56:24.825Z,18.70
2023-03-02T01:58:56.047Z,17.77
2023-03-02T02:01:26.004Z,18.37
2023-03-02T02:03:56.981Z,20.37
2023-03-02T02:06:25.761Z,19.10
2023-03-02T02:08:56.664Z,20.77
2023-03-02T02:11:27.938Z,24.30
2023-03-02T02:14:02.872Z,20.87
2023-03-02T02:16:35.932Z,15.67
2023-03-02T02:19:08.872Z,21.40
2023-03-02T02:21:37.682Z,16.67
2023-03-02T02:27:54.204Z,20.23
2023-03-02T02:30:22.245Z,16.60
2023-03-02T02:32:50.582Z,14.93
2023-03-02T02:35:21.343Z,23.43
2023-03-02T02:37:50.722Z,20.23
2023-03-02T02:40:21.510Z,18.90
2023-03-02T02:42:51.131Z,19.73
2023-03-02T02:45:23.561Z,19.17
2023-03-02T02:47:51.767Z,20.37
2023-03-02T02:50:20.648Z,15.67
2023-03-02T02:52:50.380Z,15.37
2023-03-02T02:55:19.722Z,19.40
2023-03-02T02:57:48.006Z,22.07
2023-03-02T03:00:19.185Z,17.10
2023-03-02T03:02:50.153Z,17.67
2023-03-02T03:05:18.457Z,20.20
2023-03-02T03:07:46.398Z,21.07
2023-03-02T03:10:18.558Z,20.10
2023-03-02T03:12:46.651Z,21.33
2023-03-02T03:15:14.823Z,17.63
2023-03-02T03:17:42.256Z,18.87
2023-03-02T03:20:16.209Z,16.97
2023-03-02T03:22:45.145Z,20.13
2023-03-02T03:25:15.262Z,20.63
2023-03-02T03:27:44.633Z,13.90
2023-03-02T03:30:14.863Z,18.13
2023-03-02T03:32:43.447Z,16.40
2023-03-02T03:35:12.763Z,20.27
2023-03-02T03:37:40.880Z,18.90
2023-03-02T03:40:10.940Z,19.37
2023-03-02T03:42:41.410Z,20.03
2023-03-02T03:45:09.460Z,15.83
2023-03-02T03:47:38.514Z,22.77
2023-03-02T03:50:08.342Z,20.10
2023-03-02T03:52:42.857Z,21.97
2023-03-02T03:55:28.368Z,19.00
2023-03-02T03:57:56.647Z,20.47
2023-03-02T04:00:24.890Z,17.63
2023-03-02T04:03:20.047Z,22.60
2023-03-02T04:05:47.676Z,17.03
2023-03-02T04:08:17.001Z,20.60
2023-03-02T04:10:44.708Z,18.43
2023-03-02T04:13:13.169Z,19.37
2023-03-02T04:15:41.700Z,21.67
2023-03-02T04:18:09.266Z,18.83
2023-03-02T04:20:37.228Z,16.57
2023-03-02T04:23:05.369Z,19.97
2023-03-02T04:25:34.134Z,20.77
2023-03-02T04:28:07.925Z,20.40
2023-03-02T04:30:38.442Z,25.07
2023-03-02T04:33:06.132Z,22.13
2023-03-02T04:35:35.066Z,21.90
2023-03-02T04:38:03.287Z,20.50
2023-03-02T04:40:31.120Z,19.93
2023-03-02T04:42:59.768Z,16.23
2023-03-02T04:45:27.102Z,17.37
2023-03-02T04:47:54.463Z,21.03
2023-03-02T04:50:21.844Z,23.33
2023-03-02T04:52:50.039Z,22.57
2023-03-02T04:55:19.533Z,22.27
2023-03-02T04:57:46.898Z,20.93
2023-03-02T05:00:16.871Z,19.53
2023-03-02T05:02:44.343Z,22.30
2023-03-02T05:05:15.628Z,21.73
2023-03-02T05:07:42.949Z,17.33
2023-03-02T05:10:10.875Z,15.83
2023-03-02T05:12:54.528Z,18.27
2023-03-02T05:15:24.487Z,16.90
2023-03-02T05:17:51.906Z,19.83
2023-03-02T05:20:21.924Z,20.07
2023-03-02T05:22:49.251Z,17.83
2023-03-02T05:25:16.571Z,15.43
2023-03-02T05:27:43.938Z,22.03
2023-03-02T05:30:12.129Z,20.80
2023-03-02T05:32:41.152Z,22.37
2023-03-02T05:35:08.985Z,20.17
2023-03-02T05:37:36.462Z,19.73
2023-03-02T05:40:05.332Z,21.27
2023-03-02T05:42:33.727Z,17.13
2023-03-02T05:45:01.068Z,20.57
2023-03-02T05:47:28.520Z,23.33
2023-03-02T05:49:57.649Z,21.67
2023-03-02T05:52:25.077Z,21.87
2023-03-02T05:54:52.527Z,22.50
2023-03-02T05:57:20.183Z,19.10
2023-03-02T05:59:47.495Z,16.73
2023-03-02T06:02:14.843Z,27.60
2023-03-02T06:04:43.127Z,20.40
2023-03-02T06:07:12.277Z,15.87
2023-03-02T06:09:39.785Z,18.93
2023-03-02T06:12:08.234Z,17.53
2023-03-02T06:14:36.397Z,15.47
2023-03-02T06:17:03.754Z,22.50
2023-03-02T06:19:31.100Z,21.40
2023-03-02T06:21:58.510Z,18.73
2023-03-02T06:24:27.299Z,17.13
2023-03-02T06:26:55.183Z,20.57
2023-03-02T06:29:22.659Z,19.40
2023-03-02T06:31:50.273Z,20.33
2023-03-02T06:34:17.805Z,20.57
2023-03-02T06:36:45.163Z,24.17
2023-03-02T06:39:15.773Z,23.23
2023-03-02T06:41:44.920Z,17.33
2023-03-02T06:44:12.556Z,18.57
2023-03-02T06:46:40.323Z,19.00
2023-03-02T06:49:07.684Z,17.67
2023-03-02T06:51:35.404Z,23.33
2023-03-02T06:54:03.328Z,18.00
2023-03-02T06:56:30.917Z,28.40
2023-03-02T06:58:59.785Z,19.33
2023-03-02T07:01:27.158Z,20.90
2023-03-02T07:03:54.545Z,21.40
2023-03-02T07:06:21.909Z,22.87
2023-03-02T07:08:49.246Z,22.47
2023-03-02T07:11:16.566Z,21.50
2023-03-02T07:13:44.189Z,26.30
2023-03-02T07:16:16.246Z,21.07
2023-03-02T07:18:43.909Z,20.83
2023-03-02T07:21:11.224Z,22.30
2023-03-02T07:23:38.567Z,29.10
2023-03-02T07:26:08.369Z,23.07
2023-03-02T07:28:36.257Z,28.20
2023-03-02T07:31:03.696Z,24.77
2023-03-02T07:33:33.011Z,23.57
2023-03-02T07:36:00.376Z,21.40
2023-03-02T07:38:28.167Z,19.17
2023-03-02T07:40:55.530Z,27.53
2023-03-02T07:43:23.965Z,27.00
2023-03-02T07:45:51.287Z,23.17
2023-03-02T07:48:19.856Z,24.00
2023-03-02T07:50:48.506Z,28.10
2023-03-02T07:53:16.031Z,24.87
2023-03-02T07:55:43.370Z,29.80
2023-03-02T07:58:10.793Z,22.40
2023-03-02T08:00:41.270Z,35.50
2023-03-02T08:03:09.992Z,29.97
2023-03-02T08:05:37.343Z,32.33
2023-03-02T08:08:06.161Z,29.50
2023-03-02T08:10:35.202Z,23.63
2023-03-02T08:13:02.548Z,27.63
2023-03-02T08:15:29.887Z,32.50
2023-03-02T08:17:57.228Z,34.80
2023-03-02T08:20:24.557Z,29.73
2023-03-02T08:22:52.456Z,30.97
2023-03-02T08:25:21.197Z,34.93
2023-03-02T08:27:48.533Z,33.20
2023-03-02T08:30:16.331Z,32.53
2023-03-02T08:32:43.765Z,31.87
2023-03-02T08:35:11.208Z,30.77
2023-03-02T08:37:38.534Z,29.63
2023-03-02T08:40:06.568Z,27.93
2023-03-02T08:42:35.221Z,29.73
2023-03-02T08:45:02.574Z,32.07
2023-03-02T08:47:30.210Z,36.27
2023-03-02T08:49:57.620Z,25.57
2023-03-02T08:52:25.249Z,30.43
2023-03-02T08:54:52.623Z,28.10
2023-03-02T08:57:21.357Z,31.00
2023-03-02T08:59:52.203Z,33.53
2023-03-02T09:02:19.584Z,32.37
2023-03-02T09:04:47.005Z,35.07
2023-03-02T09:07:17.211Z,36.10
2023-03-02T09:09:44.662Z,34.30
2023-03-02T09:12:11.985Z,31.50
2023-03-02T09:14:39.398Z,33.33
2023-03-02T09:17:08.030Z,30.43
2023-03-02T09:19:43.793Z,31.63
2023-03-02T09:22:11.789Z,33.50
2023-03-02T09:24:39.155Z,30.30
2023-03-02T09:27:06.662Z,27.90
2023-03-02T09:29:34.017Z,30.30
2023-03-02T09:32:01.556Z,29.83
2023-03-02T09:34:30.364Z,31.30
2023-03-02T09:36:57.703Z,36.97
2023-03-02T09:39:25.068Z,29.37
2023-03-02T09:42:01.577Z,27.17
2023-03-02T09:44:38.124Z,27.40
2023-03-02T09:47:06.260Z,30.83
2023-03-02T09:49:42.364Z,26.40
2023-03-02T09:52:11.602Z,30.10
2023-03-02T09:54:39.823Z,27.20
2023-03-02T09:57:15.798Z,27.33
2023-03-02T09:59:45.879Z,29.47
2023-03-02T10:02:22.334Z,24.50
2023-03-02T10:04:52.931Z,27.60
2023-03-02T10:07:23.617Z,26.97
2023-03-02T10:09:51.001Z,24.10
2023-03-02T10:12:24.144Z,25.97
2023-03-02T10:14:56.124Z,26.70
2023-03-02T10:17:34.887Z,25.83
2023-03-02T10:20:04.842Z,25.40
2023-03-02T10:22:35.216Z,25.17
2023-03-02T10:25:09.569Z,26.47
2023-03-02T10:27:39.313Z,29.30
2023-03-02T10:30:08.720Z,24.43
2023-03-02T10:32:38.177Z,23.67
2023-03-02T10:35:14.982Z,32.03
2023-03-02T10:37:42.493Z,28.10
2023-03-02T10:40:17.914Z,26.57
2023-03-02T10:42:45.386Z,28.23
2023-03-02T10:45:19.940Z,28.23
2023-03-02T10:47:47.441Z,26.67
2023-03-02T10:50:24.263Z,25.97
2023-03-02T10:53:00.153Z,28.20
2023-03-02T10:55:28.877Z,24.97
2023-03-02T10:58:03.811Z,28.70
2023-03-02T11:00:31.804Z,28.80
2023-03-02T11:03:00.116Z,27.53
2023-03-02T11:05:30.963Z,27.37
2023-03-02T11:07:58.910Z,28.57
2023-03-02T11:10:29.050Z,27.43
2023-03-02T11:12:56.644Z,26.67
2023-03-02T11:15:26.015Z,22.47
2023-03-02T11:18:01.008Z,21.00
2023-03-02T11:20:31.598Z,26.77
2023-03-02T11:23:03.453Z,26.67
2023-03-02T11:25:32.632Z,24.73
2023-03-02T11:28:03.148Z,23.50
2023-03-02T11:30:35.362Z,20.73
2023-03-02T11:33:05.010Z,21.77
2023-03-02T11:35:34.606Z,19.87
2023-03-02T11:38:06.285Z,15.80
2023-03-02T11:40:35.324Z,19.47
2023-03-02T11:43:04.780Z,21.67
2023-03-02T11:45:33.777Z,17.47
2023-03-02T11:48:04.249Z,20.20
2023-03-02T11:50:33.440Z,18.47
2023-03-02T11:53:04.614Z,18.63
2023-03-02T11:55:34.343Z,18.50
2023-03-02T11:58:03.753Z,19.97
2023-03-02T12:00:33.119Z,19.73
2023-03-02T12:03:04.797Z,18.53
2023-03-02T12:05:35.575Z,19.13
2023-03-02T12:08:06.286Z,20.30
2023-03-02T12:10:35.933Z,21.30
2023-03-02T12:13:18.023Z,22.03
2023-03-02T12:15:46.819Z,18.87
2023-03-02T12:18:28.036Z,18.77
2023-03-02T12:21:02.749Z,13.37
2023-03-02T12:23:32.235Z,17.20
2023-03-02T12:26:04.099Z,12.87
2023-03-02T12:28:33.925Z,17.40
2023-03-02T12:31:07.151Z,14.37
2023-03-02T12:33:40.233Z,14.20
2023-03-02T12:36:12.989Z,13.70
2023-03-02T12:38:43.888Z,15.33
2023-03-02T12:41:17.498Z,13.87
2023-03-02T12:43:48.358Z,10.93
2023-03-02T12:46:37.831Z,12.33
2023-03-02T12:49:29.172Z,11.40
2023-03-02T12:51:58.934Z,12.03
2023-03-02T12:54:28.607Z,14.10
2023-03-02T12:57:08.595Z,14.33
2023-03-02T12:59:37.777Z,11.77
2023-03-02T13:02:06.400Z,10.87
2023-03-02T13:04:33.731Z,9.87
2023-03-02T13:07:01.094Z,12.57
2023-03-02T13:09:29.917Z,11.90
2023-03-02T13:11:57.725Z,12.50
2023-03-02T13:14:26.990Z,11.93
2023-03-02T13:16:56.320Z,12.27
2023-03-02T13:19:24.186Z,11.93
2023-03-02T13:21:51.798Z,12.20
2023-03-02T13:24:28.229Z,11.33
2023-03-02T13:26:58.268Z,11.53
2023-03-02T13:29:27.818Z,14.90
2023-03-02T13:31:56.290Z,12.77
2023-03-02T13:34:24.486Z,10.90
2023-03-02T13:36:52.173Z,11.07
2023-03-02T13:39:21.868Z,7.70
2023-03-02T13:41:56.434Z,10.03
2023-03-02T13:44:29.900Z,12.60
2023-03-02T13:46:57.303Z,15.40
2023-03-02T13:49:29.327Z,11.40
2023-03-02T13:52:02.911Z,11.83
2023-03-02T13:54:31.665Z,16.47
2023-03-02T13:56:59.570Z,12.00
2023-03-02T13:59:28.257Z,12.33
2023-03-02T14:01:55.851Z,13.80
2023-03-02T14:04:24.134Z,12.47
2023-03-02T14:06:53.336Z,17.33
2023-03-02T14:09:21.571Z,14.67
2023-03-02T14:11:50.882Z,11.37
2023-03-02T14:14:19.860Z,12.70
2023-03-02T14:16:48.850Z,13.43
2023-03-02T14:19:18.321Z,12.47
2023-03-02T14:21:46.005Z,10.90
2023-03-02T14:24:14.289Z,13.73
2023-03-02T14:26:43.521Z,13.47
2023-03-02T14:29:16.772Z,18.50
2023-03-02T14:31:44.374Z,12.10
2023-03-02T14:34:14.808Z,14.33
2023-03-02T14:36:42.653Z,13.23
2023-03-02T14:39:15.824Z,12.93
2023-03-02T14:41:52.923Z,12.63
2023-03-02T14:44:21.030Z,16.00
2023-03-02T14:46:48.605Z,14.17
2023-03-02T14:49:17.488Z,13.83
2023-03-02T14:51:46.915Z,14.60
2023-03-02T14:54:15.900Z,12.77
2023-03-02T14:56:44.483Z,12.17
2023-03-02T14:59:14.182Z,16.17
2023-03-02T15:01:41.673Z,14.30
2023-03-02T15:04:09.283Z,18.77
2023-03-02T15:06:40.294Z,14.90
2023-03-02T15:09:08.380Z,17.77
2023-03-02T15:11:36.010Z,14.80
2023-03-02T15:14:03.651Z,17.77
2023-03-02T15:16:31.594Z,22.60
2023-03-02T15:18:59.120Z,17.20
2023-03-02T15:21:26.556Z,22.03
2023-03-02T15:23:55.324Z,18.67
2023-03-02T15:26:22.755Z,18.93
2023-03-02T15:28:50.821Z,16.40
2023-03-02T15:31:18.640Z,17.53
2023-03-02T15:33:46.261Z,17.53
2023-03-02T15:36:14.162Z,20.53
2023-03-02T15:38:41.923Z,18.50
2023-03-02T15:41:11.932Z,22.23
2023-03-02T15:43:39.368Z,20.00
2023-03-02T15:46:06.836Z,22.73
2023-03-02T15:48:34.192Z,73.50
2023-03-02T15:51:02.745Z,38.53
2023-03-02T15:53:30.832Z,25.10
2023-03-02T15:55:58.276Z,24.10
2023-03-02T15:58:27.058Z,27.97
2023-03-02T16:00:54.591Z,23.47
2023-03-02T16:03:23.376Z,20.13
2023-03-02T16:05:51.230Z,20.63
2023-03-02T16:08:18.891Z,23.20
2023-03-02T16:10:55.901Z,20.70
2023-03-02T16:13:23.268Z,21.30
2023-03-02T16:15:52.045Z,16.93
2023-03-02T16:18:19.442Z,20.57
2023-03-02T16:20:46.785Z,19.03
2023-03-02T16:23:15.826Z,16.87
2023-03-02T16:25:44.343Z,17.27
2023-03-02T16:28:11.714Z,15.57
2023-03-02T16:30:40.066Z,15.50
2023-03-02T16:33:10.140Z,15.47
2023-03-02T16:35:38.457Z,15.57
2023-03-02T16:38:06.975Z,16.20
2023-03-02T16:40:34.505Z,18.93
2023-03-02T16:43:02.476Z,20.57
2023-03-02T16:45:30.206Z,15.33
2023-03-02T16:47:57.534Z,18.93
2023-03-02T16:50:26.381Z,15.93
2023-03-02T16:52:53.728Z,18.90
2023-03-02T16:55:22.164Z,16.87
2023-03-02T16:57:49.551Z,16.93
2023-03-02T17:00:20.151Z,15.60
2023-03-02T17:02:47.813Z,16.10
2023-03-02T17:05:16.432Z,15.77
2023-03-02T17:07:45.119Z,16.70
2023-03-02T17:10:14.198Z,15.93
2023-03-02T17:12:41.556Z,14.07
2023-03-02T17:15:09.736Z,16.90
2023-03-02T17:17:37.767Z,17.17
2023-03-02T17:20:05.804Z,16.20
2023-03-02T17:22:34.050Z,15.47
2023-03-02T17:25:04.626Z,16.00
2023-03-02T17:27:32.638Z,19.70
2023-03-02T17:30:00.120Z,15.97
2023-03-02T17:32:27.511Z,19.57
2023-03-02T17:34:54.873Z,22.63
2023-03-02T17:37:28.237Z,20.47
2023-03-02T17:39:55.634Z,20.20
2023-03-02T17:42:24.316Z,22.30
2023-03-02T17:44:51.661Z,19.17
2023-03-02T17:47:19.023Z,19.40
2023-03-02T17:49:46.372Z,20.43
2023-03-02T17:52:14.236Z,19.13
2023-03-02T17:54:41.829Z,18.60
2023-03-02T17:57:09.162Z,20.73
2023-03-02T17:59:37.952Z,19.13
2023-03-02T18:02:05.714Z,22.03
2023-03-02T18:04:33.110Z,27.67
2023-03-02T18:07:01.550Z,26.83
2023-03-02T18:09:29.000Z,33.97
2023-03-02T18:11:56.339Z,27.80
2023-03-02T18:14:28.267Z,30.40
2023-03-02T18:16:56.940Z,37.07
2023-03-02T18:19:26.179Z,41.13
2023-03-02T18:21:53.508Z,34.80
2023-03-02T18:24:20.837Z,40.27
2023-03-02T18:26:48.164Z,40.10
2023-03-02T18:29:16.372Z,41.70
2023-03-02T18:31:43.812Z,48.17
2023-03-02T18:34:14.233Z,44.83
2023-03-02T18:36:41.707Z,41.63
2023-03-02T18:39:09.053Z,37.47
2023-03-02T18:41:36.416Z,34.43
2023-03-02T18:44:03.784Z,30.17
2023-03-02T18:46:32.412Z,29.77
2023-03-02T18:49:00.820Z,32.73
2023-03-02T18:51:30.354Z,26.10
2023-03-02T18:53:58.108Z,31.30
2023-03-02T18:56:25.574Z,41.87
2023-03-02T18:58:53.770Z,35.67
2023-03-02T19:01:22.216Z,47.20
2023-03-02T19:03:50.044Z,39.70
2023-03-02T19:06:17.600Z,31.97
2023-03-02T19:08:47.907Z,41.23
2023-03-02T19:11:15.257Z,38.13
2023-03-02T19:13:42.861Z,43.97
2023-03-02T19:16:10.425Z,56.53
2023-03-02T19:18:38.659Z,52.23
2023-03-02T19:21:06.588Z,55.30
2023-03-02T19:23:34.024Z,49.33
2023-03-02T19:26:04.675Z,51.77
2023-03-02T19:28:33.807Z,48.83
2023-03-02T19:31:02.933Z,50.30
2023-03-02T19:33:30.441Z,44.40
2023-03-02T19:36:00.394Z,49.53
2023-03-02T19:38:29.051Z,41.70
2023-03-02T19:40:57.680Z,45.47
2023-03-02T19:43:26.730Z,42.80
2023-03-02T19:45:54.142Z,40.03
2023-03-02T19:48:21.789Z,36.13
2023-03-02T19:50:49.160Z,39.63
2023-03-02T19:53:16.887Z,36.80
2023-03-02T19:55:46.188Z,39.13
2023-03-02T19:58:17.195Z,40.43
2023-03-02T20:00:46.837Z,37.93
2023-03-02T20:03:14.584Z,30.80
2023-03-02T20:05:41.916Z,30.80
2023-03-02T20:08:09.308Z,34.70
2023-03-02T20:10:38.148Z,33.23
2023-03-02T20:13:05.531Z,35.93
2023-03-02T20:15:33.889Z,34.60
2023-03-02T20:18:03.185Z,35.87
2023-03-02T20:20:30.986Z,35.67
2023-03-02T20:23:00.015Z,28.27
2023-03-02T20:25:27.784Z,25.27
2023-03-02T20:27:55.140Z,22.53
2023-03-02T20:30:27.676Z,20.97
2023-03-02T20:32:55.514Z,18.60
2023-03-02T20:35:24.944Z,17.30
2023-03-02T20:37:52.860Z,18.40
2023-03-02T20:40:24.735Z,16.83
2023-03-02T20:42:52.212Z,18.57
2023-03-02T20:45:20.084Z,16.30
2023-03-02T20:47:47.666Z,14.93
2023-03-02T20:50:16.581Z,18.43
2023-03-02T20:52:45.398Z,20.80
2023-03-02T20:55:13.052Z,56.07
2023-03-02T20:57:40.792Z,49.70
2023-03-02T21:00:10.472Z,45.10
2023-03-02T21:02:38.388Z,27.03
2023-03-02T21:05:06.541Z,28.40
2023-03-02T21:07:35.683Z,23.73
2023-03-02T21:10:05.468Z,22.93
2023-03-02T21:12:33.144Z,23.20
2023-03-02T21:15:02.011Z,23.70
2023-03-02T21:17:30.705Z,22.63
2023-03-02T21:19:59.025Z,23.00
2023-03-02T21:22:26.370Z,25.47
2023-03-02T21:24:53.818Z,28.27
2023-03-02T21:27:22.599Z,29.20
2023-03-02T21:29:50.016Z,23.43
2023-03-02T21:32:17.762Z,21.47
2023-03-02T21:34:45.739Z,25.87
2023-03-02T21:37:13.087Z,25.90
2023-03-02T21:39:40.414Z,25.23
2023-03-02T21:42:08.111Z,26.97
2023-03-02T21:44:36.802Z,30.13
2023-03-02T21:47:04.344Z,32.17
2023-03-02T21:49:31.832Z,29.27
2023-03-02T21:51:59.289Z,28.87
2023-03-02T21:54:26.618Z,25.33
2023-03-02T21:56:54.260Z,19.27
2023-03-02T21:59:21.591Z,19.53
2023-03-02T22:01:50.338Z,20.60
2023-03-02T22:04:17.818Z,17.50
2023-03-02T22:06:45.158Z,24.17
2023-03-02T22:09:12.541Z,22.17
2023-03-02T22:11:39.935Z,22.57
2023-03-02T22:14:12.069Z,21.10
2023-03-02T22:16:40.243Z,20.43
2023-03-02T22:19:18.714Z,21.37
2023-03-02T22:21:47.866Z,26.20
2023-03-02T22:24:18.795Z,21.33
2023-03-02T22:26:47.156Z,23.50
2023-03-02T22:29:17.182Z,27.30
2023-03-02T22:31:46.847Z,22.23
2023-03-02T22:34:18.167Z,26.03
2023-03-02T22:36:46.817Z,22.97
2023-03-02T22:39:17.692Z,27.83
2023-03-02T22:41:45.092Z,23.27
2023-03-02T22:44:13.368Z,20.73
2023-03-02T22:46:40.805Z,25.70
2023-03-02T22:49:17.561Z,22.47
2023-03-02T22:51:45.380Z,24.27
2023-03-02T22:54:20.853Z,26.13
2023-03-02T22:56:49.324Z,21.37
2023-03-02T22:59:21.839Z,26.17
2023-03-02T23:01:49.322Z,23.87
2023-03-02T23:04:20.095Z,22.20
2023-03-02T23:06:48.655Z,24.80
2023-03-02T23:09:17.701Z,26.10
2023-03-02T23:11:45.714Z,30.60
2023-03-02T23:14:18.046Z,27.90
2023-03-02T23:16:46.708Z,32.07
2023-03-02T23:19:14.076Z,28.07
2023-03-02T23:21:46.010Z,32.67
2023-03-02T23:24:13.501Z,22.17
2023-03-02T23:26:40.957Z,22.90
2023-03-02T23:29:08.347Z,27.03
2023-03-02T23:31:35.832Z,23.07
2023-03-02T23:34:03.233Z,21.67
2023-03-02T23:36:31.919Z,25.30
2023-03-02T23:39:00.632Z,19.70
2023-03-02T23:41:28.272Z,23.00
2023-03-02T23:43:55.647Z,25.47
2023-03-02T23:46:23.011Z,24.37
2023-03-02T23:48:51.609Z,23.07
2023-03-02T23:51:19.428Z,25.87
2023-03-02T23:53:47.101Z,30.00
2023-03-02T23:56:15.751Z,28.17
2023-03-02T23:58:43.215Z,26.80
